sensor_id;sensor_type;location;lat;lon;timestamp;pressure;altitude;pressure_sealevel;temperature;humidity
75886;BME280;64561;44.018;10.144;2024-02-21T00:02:24;102471.63;;;7.94;88.54
75886;BME280;64561;44.018;10.144;2024-02-21T00:04:51;102466.34;;;7.91;87.74
75886;BME280;64561;44.018;10.144;2024-02-21T00:07:19;102461.63;;;7.84;88.54
75886;BME280;64561;44.018;10.144;2024-02-21T00:09:46;102462.50;;;7.85;88.56
75886;BME280;64561;44.018;10.144;2024-02-21T00:12:14;102459.75;;;7.95;89.25
75886;BME280;64561;44.018;10.144;2024-02-21T00:14:41;102459.81;;;8.10;89.69
75886;BME280;64561;44.018;10.144;2024-02-21T00:17:08;102444.66;;;7.98;86.31
75886;BME280;64561;44.018;10.144;2024-02-21T00:19:36;102449.19;;;7.89;87.00
75886;BME280;64561;44.018;10.144;2024-02-21T00:22:03;102452.69;;;7.91;88.37
75886;BME280;64561;44.018;10.144;2024-02-21T00:24:31;102428.94;;;7.64;89.15
75886;BME280;64561;44.018;10.144;2024-02-21T00:26:58;102460.19;;;7.74;88.78
75886;BME280;64561;44.018;10.144;2024-02-21T00:29:26;102454.47;;;7.78;88.91
75886;BME280;64561;44.018;10.144;2024-02-21T00:31:54;102448.25;;;7.73;89.92
75886;BME280;64561;44.018;10.144;2024-02-21T00:34:22;102434.47;;;7.56;90.68
75886;BME280;64561;44.018;10.144;2024-02-21T00:36:49;102441.88;;;7.67;90.96
75886;BME280;64561;44.018;10.144;2024-02-21T00:39:17;102448.06;;;7.70;90.97
75886;BME280;64561;44.018;10.144;2024-02-21T00:41:44;102442.78;;;7.67;89.98
75886;BME280;64561;44.018;10.144;2024-02-21T00:44:11;102436.88;;;7.55;90.94
75886;BME280;64561;44.018;10.144;2024-02-21T00:46:39;102438.09;;;7.47;91.11
75886;BME280;64561;44.018;10.144;2024-02-21T00:49:06;102441.34;;;7.44;91.46
75886;BME280;64561;44.018;10.144;2024-02-21T00:51:33;102441.75;;;7.37;92.45
75886;BME280;64561;44.018;10.144;2024-02-21T00:54:01;102438.03;;;7.32;92.78
75886;BME280;64561;44.018;10.144;2024-02-21T00:56:28;102438.09;;;7.33;93.51
75886;BME280;64561;44.018;10.144;2024-02-21T00:58:56;102425.75;;;7.40;92.28
75886;BME280;64561;44.018;10.144;2024-02-21T01:01:26;102429.47;;;7.45;91.48
75886;BME280;64561;44.018;10.144;2024-02-21T01:03:54;102422.22;;;7.51;90.71
75886;BME280;64561;44.018;10.144;2024-02-21T01:06:21;102423.50;;;7.44;90.93
75886;BME280;64561;44.018;10.144;2024-02-21T01:08:49;102429.47;;;7.45;91.98
75886;BME280;64561;44.018;10.144;2024-02-21T01:11:16;102422.91;;;7.48;91.41
75886;BME280;64561;44.018;10.144;2024-02-21T01:13:44;102428.69;;;7.59;91.62
75886;BME280;64561;44.018;10.144;2024-02-21T01:16:11;102430.72;;;7.51;91.52
75886;BME280;64561;44.018;10.144;2024-02-21T01:18:39;102429.97;;;7.52;91.71
75886;BME280;64561;44.018;10.144;2024-02-21T01:21:07;102429.25;;;7.55;92.03
75886;BME280;64561;44.018;10.144;2024-02-21T01:23:35;102426.44;;;7.50;90.98
75886;BME280;64561;44.018;10.144;2024-02-21T01:26:03;102417.03;;;7.49;91.13
75886;BME280;64561;44.018;10.144;2024-02-21T01:28:31;102419.78;;;7.52;90.80
75886;BME280;64561;44.018;10.144;2024-02-21T01:30:58;102419.66;;;7.51;91.50
75886;BME280;64561;44.018;10.144;2024-02-21T01:33:25;102427.63;;;7.55;90.82
75886;BME280;64561;44.018;10.144;2024-02-21T01:35:53;102421.53;;;7.53;91.10
75886;BME280;64561;44.018;10.144;2024-02-21T01:38:20;102427.81;;;7.59;91.08
75886;BME280;64561;44.018;10.144;2024-02-21T01:40:48;102424.56;;;7.61;91.43
75886;BME280;64561;44.018;10.144;2024-02-21T01:43:19;102436.69;;;7.52;91.58
75886;BME280;64561;44.018;10.144;2024-02-21T01:45:53;102450.44;;;7.41;92.08
75886;BME280;64561;44.018;10.144;2024-02-21T01:48:24;102452.50;;;7.33;92.49
75886;BME280;64561;44.018;10.144;2024-02-21T01:50:54;102452.22;;;7.28;93.06
75886;BME280;64561;44.018;10.144;2024-02-21T01:53:30;102447.31;;;7.31;93.36
75886;BME280;64561;44.018;10.144;2024-02-21T01:55:59;102444.16;;;7.49;93.53
75886;BME280;64561;44.018;10.144;2024-02-21T01:58:28;102445.34;;;7.54;93.07
75886;BME280;64561;44.018;10.144;2024-02-21T02:00:57;102437.81;;;7.55;92.59
75886;BME280;64561;44.018;10.144;2024-02-21T02:03:25;102429.84;;;7.51;91.80
75886;BME280;64561;44.018;10.144;2024-02-21T02:05:52;102438.56;;;7.54;91.92
75886;BME280;64561;44.018;10.144;2024-02-21T02:08:19;102435.81;;;7.51;90.89
75886;BME280;64561;44.018;10.144;2024-02-21T02:10:49;102431.78;;;7.55;92.02
75886;BME280;64561;44.018;10.144;2024-02-21T02:13:17;102427.31;;;7.51;90.83
75886;BME280;64561;44.018;10.144;2024-02-21T02:15:46;102421.41;;;7.52;91.35
75886;BME280;64561;44.018;10.144;2024-02-21T02:18:15;102439.66;;;7.45;91.10
75886;BME280;64561;44.018;10.144;2024-02-21T02:20:44;102434.59;;;7.31;91.65
75886;BME280;64561;44.018;10.144;2024-02-21T02:25:47;102441.06;;;7.26;91.62
75886;BME280;64561;44.018;10.144;2024-02-21T02:28:21;102449.69;;;7.28;92.42
75886;BME280;64561;44.018;10.144;2024-02-21T02:30:49;102443.59;;;7.26;92.28
75886;BME280;64561;44.018;10.144;2024-02-21T02:33:16;102438.78;;;7.31;92.67
75886;BME280;64561;44.018;10.144;2024-02-21T02:35:47;102440.56;;;7.32;92.51
75886;BME280;64561;44.018;10.144;2024-02-21T02:38:14;102437.91;;;7.30;92.22
75886;BME280;64561;44.018;10.144;2024-02-21T02:40:42;102435.47;;;7.32;92.51
75886;BME280;64561;44.018;10.144;2024-02-21T02:43:09;102420.09;;;7.17;90.93
75886;BME280;64561;44.018;10.144;2024-02-21T02:45:37;102429.50;;;7.18;92.19
75886;BME280;64561;44.018;10.144;2024-02-21T02:48:04;102429.78;;;7.09;91.90
75886;BME280;64561;44.018;10.144;2024-02-21T02:50:31;102427.44;;;7.13;92.46
75886;BME280;64561;44.018;10.144;2024-02-21T02:52:59;102424.97;;;7.01;90.93
75886;BME280;64561;44.018;10.144;2024-02-21T02:55:26;102430.41;;;6.92;91.83
75886;BME280;64561;44.018;10.144;2024-02-21T02:57:54;102420.88;;;6.90;92.01
75886;BME280;64561;44.018;10.144;2024-02-21T03:00:21;102430.69;;;6.83;92.81
75886;BME280;64561;44.018;10.144;2024-02-21T03:02:49;102420.09;;;6.77;93.40
75886;BME280;64561;44.018;10.144;2024-02-21T03:05:21;102426.53;;;6.72;93.89
75886;BME280;64561;44.018;10.144;2024-02-21T03:07:49;102425.66;;;6.72;94.54
75886;BME280;64561;44.018;10.144;2024-02-21T03:10:17;102421.72;;;6.63;94.68
75886;BME280;64561;44.018;10.144;2024-02-21T03:12:45;102427.81;;;6.66;94.47
75886;BME280;64561;44.018;10.144;2024-02-21T03:15:13;102432.56;;;6.61;95.10
75886;BME280;64561;44.018;10.144;2024-02-21T03:17:41;102432.56;;;6.61;96.05
75886;BME280;64561;44.018;10.144;2024-02-21T03:20:10;102429.47;;;6.65;95.69
75886;BME280;64561;44.018;10.144;2024-02-21T03:22:40;102428.78;;;6.68;95.70
75886;BME280;64561;44.018;10.144;2024-02-21T03:25:09;102435.72;;;6.70;95.95
75886;BME280;64561;44.018;10.144;2024-02-21T03:27:39;102446.22;;;6.75;95.72
75886;BME280;64561;44.018;10.144;2024-02-21T03:30:07;102444.53;;;6.75;96.08
75886;BME280;64561;44.018;10.144;2024-02-21T03:32:34;102447.28;;;6.78;95.55
75886;BME280;64561;44.018;10.144;2024-02-21T03:35:02;102443.47;;;6.85;95.06
75886;BME280;64561;44.018;10.144;2024-02-21T03:37:30;102446.69;;;6.82;93.96
75886;BME280;64561;44.018;10.144;2024-02-21T03:39:58;102450.63;;;6.77;94.79
75886;BME280;64561;44.018;10.144;2024-02-21T03:42:25;102457.75;;;6.70;95.19
75886;BME280;64561;44.018;10.144;2024-02-21T03:44:52;102457.53;;;6.67;94.92
75886;BME280;64561;44.018;10.144;2024-02-21T03:47:19;102456.47;;;6.63;95.02
75886;BME280;64561;44.018;10.144;2024-02-21T03:49:46;102454.19;;;6.68;95.19
75886;BME280;64561;44.018;10.144;2024-02-21T03:52:14;102457.53;;;6.67;95.54
75886;BME280;64561;44.018;10.144;2024-02-21T03:54:41;102460.41;;;6.71;96.07
75886;BME280;64561;44.018;10.144;2024-02-21T03:57:08;102454.91;;;6.78;95.84
75886;BME280;64561;44.018;10.144;2024-02-21T03:59:35;102456.50;;;6.90;96.02
75886;BME280;64561;44.018;10.144;2024-02-21T04:02:02;102450.75;;;6.92;96.03
75886;BME280;64561;44.018;10.144;2024-02-21T04:04:35;102454.38;;;6.96;95.40
75886;BME280;64561;44.018;10.144;2024-02-21T04:07:04;102445.84;;;6.95;95.49
75886;BME280;64561;44.018;10.144;2024-02-21T04:09:35;102454.75;;;7.02;95.78
75886;BME280;64561;44.018;10.144;2024-02-21T04:12:03;102439.56;;;6.90;94.94
75886;BME280;64561;44.018;10.144;2024-02-21T04:14:30;102445.75;;;6.80;94.36
75886;BME280;64561;44.018;10.144;2024-02-21T04:16:57;102447.97;;;6.76;94.04
75886;BME280;64561;44.018;10.144;2024-02-21T04:19:24;102436.25;;;6.78;94.86
75886;BME280;64561;44.018;10.144;2024-02-21T04:21:52;102452.09;;;6.87;94.92
75886;BME280;64561;44.018;10.144;2024-02-21T04:24:19;102455.44;;;6.86;94.35
75886;BME280;64561;44.018;10.144;2024-02-21T04:26:47;102452.00;;;6.85;94.15
75886;BME280;64561;44.018;10.144;2024-02-21T04:29:14;102441.31;;;6.78;94.41
75886;BME280;64561;44.018;10.144;2024-02-21T04:31:42;102444.94;;;6.81;94.29
75886;BME280;64561;44.018;10.144;2024-02-21T04:34:09;102432.03;;;6.78;95.09
75886;BME280;64561;44.018;10.144;2024-02-21T04:36:36;102440.13;;;6.59;94.22
75886;BME280;64561;44.018;10.144;2024-02-21T04:39:03;102443.69;;;6.50;95.46
75886;BME280;64561;44.018;10.144;2024-02-21T04:41:31;102442.94;;;6.51;96.33
75886;BME280;64561;44.018;10.144;2024-02-21T04:43:58;102442.47;;;6.56;95.80
75886;BME280;64561;44.018;10.144;2024-02-21T04:46:25;102436.50;;;6.56;95.37
75886;BME280;64561;44.018;10.144;2024-02-21T04:48:53;102447.16;;;6.63;95.67
75886;BME280;64561;44.018;10.144;2024-02-21T04:51:20;102432.78;;;6.64;95.53
75886;BME280;64561;44.018;10.144;2024-02-21T04:53:47;102438.84;;;6.66;95.59
75886;BME280;64561;44.018;10.144;2024-02-21T04:56:14;102451.66;;;6.68;95.69
75886;BME280;64561;44.018;10.144;2024-02-21T04:58:41;102447.28;;;6.65;95.76
75886;BME280;64561;44.018;10.144;2024-02-21T05:01:08;102453.59;;;6.58;95.86
75886;BME280;64561;44.018;10.144;2024-02-21T05:03:36;102462.22;;;6.60;95.85
75886;BME280;64561;44.018;10.144;2024-02-21T05:06:03;102459.16;;;6.53;95.72
75886;BME280;64561;44.018;10.144;2024-02-21T05:08:30;102464.75;;;6.47;96.68
75886;BME280;64561;44.018;10.144;2024-02-21T05:10:58;102468.03;;;6.46;96.70
75886;BME280;64561;44.018;10.144;2024-02-21T05:13:25;102472.81;;;6.41;96.36
75886;BME280;64561;44.018;10.144;2024-02-21T05:15:52;102470.34;;;6.30;97.18
75886;BME280;64561;44.018;10.144;2024-02-21T05:18:19;102473.56;;;6.27;98.30
75886;BME280;64561;44.018;10.144;2024-02-21T05:20:47;102468.59;;;6.29;98.40
75886;BME280;64561;44.018;10.144;2024-02-21T05:23:14;102465.47;;;6.33;98.10
75886;BME280;64561;44.018;10.144;2024-02-21T05:25:42;102471.47;;;6.22;98.86
75886;BME280;64561;44.018;10.144;2024-02-21T05:28:09;102473.22;;;6.23;98.10
75886;BME280;64561;44.018;10.144;2024-02-21T05:30:36;102469.59;;;6.19;98.72
75886;BME280;64561;44.018;10.144;2024-02-21T05:33:04;102474.06;;;6.10;98.64
75886;BME280;64561;44.018;10.144;2024-02-21T05:35:33;102477.78;;;6.15;98.84
75886;BME280;64561;44.018;10.144;2024-02-21T05:38:00;102473.97;;;6.08;99.07
75886;BME280;64561;44.018;10.144;2024-02-21T05:40:27;102474.84;;;6.09;98.95
75886;BME280;64561;44.018;10.144;2024-02-21T05:42:55;102446.47;;;6.03;98.57
75886;BME280;64561;44.018;10.144;2024-02-21T05:45:22;102459.47;;;6.07;98.94
75886;BME280;64561;44.018;10.144;2024-02-21T05:47:56;102453.47;;;5.93;100.00
75886;BME280;64561;44.018;10.144;2024-02-21T05:50:39;102461.16;;;5.95;100.00
75886;BME280;64561;44.018;10.144;2024-02-21T05:53:06;102454.09;;;6.03;100.00
75886;BME280;64561;44.018;10.144;2024-02-21T05:55:33;102456.72;;;6.04;99.74
75886;BME280;64561;44.018;10.144;2024-02-21T05:58:01;102469.09;;;6.11;99.85
75886;BME280;64561;44.018;10.144;2024-02-21T06:00:29;102458.25;;;6.14;99.57
75886;BME280;64561;44.018;10.144;2024-02-21T06:02:57;102451.97;;;6.09;99.21
75886;BME280;64561;44.018;10.144;2024-02-21T06:05:24;102458.06;;;6.11;99.86
75886;BME280;64561;44.018;10.144;2024-02-21T06:07:51;102453.31;;;6.04;99.87
75886;BME280;64561;44.018;10.144;2024-02-21T06:10:19;102445.25;;;5.98;99.52
75886;BME280;64561;44.018;10.144;2024-02-21T06:12:46;102462.47;;;6.02;99.83
75886;BME280;64561;44.018;10.144;2024-02-21T06:15:13;102462.72;;;6.05;100.00
75886;BME280;64561;44.018;10.144;2024-02-21T06:17:41;102461.94;;;6.06;99.80
75886;BME280;64561;44.018;10.144;2024-02-21T06:20:08;102462.81;;;6.06;100.00
75886;BME280;64561;44.018;10.144;2024-02-21T06:22:35;102467.22;;;6.09;99.88
75886;BME280;64561;44.018;10.144;2024-02-21T06:25:03;102473.22;;;6.23;99.97
75886;BME280;64561;44.018;10.144;2024-02-21T06:27:31;102482.63;;;6.24;99.19
75886;BME280;64561;44.018;10.144;2024-02-21T06:29:58;102489.94;;;6.19;99.25
75886;BME280;64561;44.018;10.144;2024-02-21T06:32:25;102497.88;;;6.24;98.49
75886;BME280;64561;44.018;10.144;2024-02-21T06:34:53;102498.53;;;6.21;98.16
75886;BME280;64561;44.018;10.144;2024-02-21T06:37:20;102506.16;;;6.21;97.81
75886;BME280;64561;44.018;10.144;2024-02-21T06:39:48;102507.28;;;6.13;97.10
75886;BME280;64561;44.018;10.144;2024-02-21T06:42:15;102510.19;;;6.06;97.87
75886;BME280;64561;44.018;10.144;2024-02-21T06:44:44;102515.72;;;6.00;98.55
75886;BME280;64561;44.018;10.144;2024-02-21T06:47:11;102515.31;;;5.94;99.09
75886;BME280;64561;44.018;10.144;2024-02-21T06:49:38;102526.09;;;5.91;99.55
75886;BME280;64561;44.018;10.144;2024-02-21T06:52:06;102532.72;;;5.89;100.00
75886;BME280;64561;44.018;10.144;2024-02-21T06:54:33;102532.72;;;5.89;100.00
75886;BME280;64561;44.018;10.144;2024-02-21T06:57:00;102534.75;;;5.93;100.00
75886;BME280;64561;44.018;10.144;2024-02-21T06:59:27;102534.97;;;5.97;100.00
75886;BME280;64561;44.018;10.144;2024-02-21T07:01:55;102535.06;;;5.98;100.00
75886;BME280;64561;44.018;10.144;2024-02-21T07:04:25;102537.25;;;6.17;100.00
75886;BME280;64561;44.018;10.144;2024-02-21T07:06:52;102527.59;;;6.25;100.00
75886;BME280;64561;44.018;10.144;2024-02-21T07:09:20;102534.88;;;6.32;100.00
75886;BME280;64561;44.018;10.144;2024-02-21T07:11:47;102528.00;;;6.31;100.00
75886;BME280;64561;44.018;10.144;2024-02-21T07:14:15;102541.25;;;6.38;100.00
75886;BME280;64561;44.018;10.144;2024-02-21T07:16:44;102547.66;;;6.45;100.00
75886;BME280;64561;44.018;10.144;2024-02-21T07:19:12;102543.97;;;6.53;100.00
75886;BME280;64561;44.018;10.144;2024-02-21T07:21:39;102534.50;;;6.64;100.00
75886;BME280;64561;44.018;10.144;2024-02-21T07:24:08;102537.41;;;6.82;100.00
75886;BME280;64561;44.018;10.144;2024-02-21T07:26:35;102548.81;;;7.00;100.00
75886;BME280;64561;44.018;10.144;2024-02-21T07:29:03;102543.34;;;7.07;100.00
75886;BME280;64561;44.018;10.144;2024-02-21T07:31:30;102550.72;;;7.16;100.00
75886;BME280;64561;44.018;10.144;2024-02-21T07:33:58;102548.94;;;7.15;100.00
75886;BME280;64561;44.018;10.144;2024-02-21T07:36:28;102552.97;;;7.25;100.00
75886;BME280;64561;44.018;10.144;2024-02-21T07:38:56;102552.47;;;7.30;100.00
75886;BME280;64561;44.018;10.144;2024-02-21T07:41:25;102548.19;;;7.43;100.00
75886;BME280;64561;44.018;10.144;2024-02-21T07:43:52;102544.66;;;7.54;100.00
75886;BME280;64561;44.018;10.144;2024-02-21T07:46:20;102546.44;;;7.68;100.00
75886;BME280;64561;44.018;10.144;2024-02-21T07:48:48;102547.81;;;7.76;100.00
75886;BME280;64561;44.018;10.144;2024-02-21T07:51:15;102542.69;;;7.90;100.00
75886;BME280;64561;44.018;10.144;2024-02-21T07:53:46;102535.91;;;8.04;100.00
75886;BME280;64561;44.018;10.144;2024-02-21T07:56:16;102534.19;;;8.17;100.00
75886;BME280;64561;44.018;10.144;2024-02-21T07:58:45;102533.00;;;8.25;100.00
75886;BME280;64561;44.018;10.144;2024-02-21T08:01:18;102531.31;;;8.39;100.00
75886;BME280;64561;44.018;10.144;2024-02-21T08:03:48;102529.41;;;8.50;100.00
75886;BME280;64561;44.018;10.144;2024-02-21T08:06:15;102544.63;;;8.63;100.00
75886;BME280;64561;44.018;10.144;2024-02-21T08:08:43;102554.53;;;8.72;100.00
75886;BME280;64561;44.018;10.144;2024-02-21T08:11:10;102552.31;;;8.78;100.00
75886;BME280;64561;44.018;10.144;2024-02-21T08:13:38;102543.38;;;8.85;99.79
75886;BME280;64561;44.018;10.144;2024-02-21T08:16:05;102541.25;;;8.92;99.50
75886;BME280;64561;44.018;10.144;2024-02-21T08:18:32;102541.72;;;9.00;98.79
75886;BME280;64561;44.018;10.144;2024-02-21T08:21:03;102541.09;;;9.04;98.19
75886;BME280;64561;44.018;10.144;2024-02-21T08:23:32;102547.38;;;9.09;96.96
75886;BME280;64561;44.018;10.144;2024-02-21T08:25:59;102546.03;;;9.16;95.62
75886;BME280;64561;44.018;10.144;2024-02-21T08:28:26;102560.19;;;9.26;92.89
75886;BME280;64561;44.018;10.144;2024-02-21T08:30:57;102561.34;;;9.31;91.44
75886;BME280;64561;44.018;10.144;2024-02-21T08:33:25;102560.13;;;9.39;91.14
75886;BME280;64561;44.018;10.144;2024-02-21T08:35:52;102561.06;;;9.41;90.03
75886;BME280;64561;44.018;10.144;2024-02-21T08:38:20;102568.22;;;9.47;90.60
75886;BME280;64561;44.018;10.144;2024-02-21T08:40:47;102557.91;;;9.45;90.16
75886;BME280;64561;44.018;10.144;2024-02-21T08:43:14;102573.06;;;9.57;89.53
75886;BME280;64561;44.018;10.144;2024-02-21T08:45:41;102566.78;;;9.67;89.31
75886;BME280;64561;44.018;10.144;2024-02-21T08:48:10;102567.47;;;9.79;89.30
75886;BME280;64561;44.018;10.144;2024-02-21T08:50:37;102565.66;;;9.93;89.09
75886;BME280;64561;44.018;10.144;2024-02-21T08:53:05;102564.88;;;10.10;88.28
75886;BME280;64561;44.018;10.144;2024-02-21T08:55:35;102559.06;;;10.13;87.97
75886;BME280;64561;44.018;10.144;2024-02-21T08:58:03;102557.66;;;10.18;87.82
75886;BME280;64561;44.018;10.144;2024-02-21T09:00:31;102554.53;;;10.23;87.88
75886;BME280;64561;44.018;10.144;2024-02-21T09:02:59;102561.75;;;10.30;87.46
75886;BME280;64561;44.018;10.144;2024-02-21T09:05:26;102567.69;;;10.46;86.07
75886;BME280;64561;44.018;10.144;2024-02-21T09:07:54;102565.75;;;10.58;85.37
75886;BME280;64561;44.018;10.144;2024-02-21T09:10:21;102561.94;;;10.66;85.77
75886;BME280;64561;44.018;10.144;2024-02-21T09:12:49;102566.66;;;10.75;86.88
75886;BME280;64561;44.018;10.144;2024-02-21T09:15:18;102567.84;;;10.82;86.62
75886;BME280;64561;44.018;10.144;2024-02-21T09:17:45;102570.44;;;10.99;86.03
75886;BME280;64561;44.018;10.144;2024-02-21T09:20:12;102559.28;;;11.15;84.97
75886;BME280;64561;44.018;10.144;2024-02-21T09:22:40;102553.81;;;11.26;84.56
75886;BME280;64561;44.018;10.144;2024-02-21T09:25:08;102557.91;;;11.40;82.21
75886;BME280;64561;44.018;10.144;2024-02-21T09:27:38;102557.19;;;11.42;79.28
75886;BME280;64561;44.018;10.144;2024-02-21T09:30:06;102551.41;;;11.47;75.17
75886;BME280;64561;44.018;10.144;2024-02-21T09:32:34;102546.94;;;11.42;77.21
75886;BME280;64561;44.018;10.144;2024-02-21T09:35:01;102554.19;;;11.51;76.86
75886;BME280;64561;44.018;10.144;2024-02-21T09:37:29;102550.91;;;11.54;76.66
75886;BME280;64561;44.018;10.144;2024-02-21T09:39:57;102546.59;;;11.53;77.83
75886;BME280;64561;44.018;10.144;2024-02-21T09:42:34;102545.72;;;11.52;78.74
75886;BME280;64561;44.018;10.144;2024-02-21T09:45:08;102541.75;;;11.59;78.74
75886;BME280;64561;44.018;10.144;2024-02-21T09:50:28;102531.06;;;11.67;80.24
75886;BME280;64561;44.018;10.144;2024-02-21T09:52:56;102533.09;;;11.93;80.14
75886;BME280;64561;44.018;10.144;2024-02-21T09:55:26;102526.63;;;12.01;77.97
75886;BME280;64561;44.018;10.144;2024-02-21T09:57:54;102521.41;;;11.99;75.96
75886;BME280;64561;44.018;10.144;2024-02-21T10:00:43;102533.22;;;11.96;76.71
75886;BME280;64561;44.018;10.144;2024-02-21T10:03:10;102522.78;;;12.10;75.02
75886;BME280;64561;44.018;10.144;2024-02-21T10:05:38;102523.81;;;12.33;73.22
75886;BME280;64561;44.018;10.144;2024-02-21T10:08:06;102522.53;;;12.43;71.71
75886;BME280;64561;44.018;10.144;2024-02-21T10:10:43;102524.06;;;12.59;70.80
75886;BME280;64561;44.018;10.144;2024-02-21T10:13:11;102520.28;;;12.70;70.45
75886;BME280;64561;44.018;10.144;2024-02-21T10:15:41;102521.41;;;12.77;72.47
75886;BME280;64561;44.018;10.144;2024-02-21T10:18:08;102523.75;;;12.92;71.54
75886;BME280;64561;44.018;10.144;2024-02-21T10:20:36;102521.34;;;12.96;67.95
75886;BME280;64561;44.018;10.144;2024-02-21T10:23:04;102522.63;;;13.06;68.56
75886;BME280;64561;44.018;10.144;2024-02-21T10:25:35;102520.31;;;13.12;69.45
75886;BME280;64561;44.018;10.144;2024-02-21T10:28:08;102516.09;;;13.14;64.09
75886;BME280;64561;44.018;10.144;2024-02-21T10:30:35;102510.81;;;13.11;66.20
75886;BME280;64561;44.018;10.144;2024-02-21T10:33:03;102516.09;;;13.14;67.65
75886;BME280;64561;44.018;10.144;2024-02-21T10:35:32;102506.63;;;13.13;68.54
75886;BME280;64561;44.018;10.144;2024-02-21T10:38:00;102507.63;;;13.17;66.85
75886;BME280;64561;44.018;10.144;2024-02-21T10:40:29;102506.16;;;13.43;65.01
75886;BME280;64561;44.018;10.144;2024-02-21T10:43:00;102514.84;;;13.46;60.53
75886;BME280;64561;44.018;10.144;2024-02-21T10:45:34;102509.53;;;13.42;63.17
75886;BME280;64561;44.018;10.144;2024-02-21T10:48:12;102495.97;;;13.68;58.30
75886;BME280;64561;44.018;10.144;2024-02-21T10:53:45;102500.81;;;13.83;56.57
75886;BME280;64561;44.018;10.144;2024-02-21T10:56:22;102503.56;;;13.65;57.79
75886;BME280;64561;44.018;10.144;2024-02-21T10:58:55;102498.91;;;13.55;61.95
75886;BME280;64561;44.018;10.144;2024-02-21T11:01:29;102492.81;;;13.53;60.13
75886;BME280;64561;44.018;10.144;2024-02-21T11:04:07;102492.50;;;13.66;61.05
75886;BME280;64561;44.018;10.144;2024-02-21T11:06:44;102480.66;;;13.94;59.56
75886;BME280;64561;44.018;10.144;2024-02-21T11:09:15;102483.50;;;14.26;60.03
75886;BME280;64561;44.018;10.144;2024-02-21T11:11:44;102477.91;;;14.61;58.56
75886;BME280;64561;44.018;10.144;2024-02-21T11:14:18;102476.00;;;14.81;59.66
75886;BME280;64561;44.018;10.144;2024-02-21T11:16:46;102478.31;;;14.99;58.25
75886;BME280;64561;44.018;10.144;2024-02-21T11:19:22;102475.25;;;15.11;56.67
75886;BME280;64561;44.018;10.144;2024-02-21T11:21:50;102460.25;;;15.26;58.43
75886;BME280;64561;44.018;10.144;2024-02-21T11:24:31;102455.28;;;15.32;55.44
75886;BME280;64561;44.018;10.144;2024-02-21T11:27:13;102453.59;;;15.33;55.61
75886;BME280;64561;44.018;10.144;2024-02-21T11:29:49;102450.81;;;15.27;55.60
75886;BME280;64561;44.018;10.144;2024-02-21T11:32:20;102459.31;;;15.23;57.72
75886;BME280;64561;44.018;10.144;2024-02-21T11:37:25;102451.75;;;15.29;57.38
75886;BME280;64561;44.018;10.144;2024-02-21T11:39:57;102451.97;;;15.37;57.37
75886;BME280;64561;44.018;10.144;2024-02-21T11:42:26;102443.34;;;15.36;58.20
75886;BME280;64561;44.018;10.144;2024-02-21T11:44:54;102444.97;;;15.32;54.07
75886;BME280;64561;44.018;10.144;2024-02-21T11:47:24;102443.72;;;15.20;55.78
75886;BME280;64561;44.018;10.144;2024-02-21T11:49:52;102442.59;;;15.12;54.85
75886;BME280;64561;44.018;10.144;2024-02-21T11:52:23;102436.81;;;15.19;56.17
75886;BME280;64561;44.018;10.144;2024-02-21T11:54:55;102434.28;;;15.20;53.90
75886;BME280;64561;44.018;10.144;2024-02-21T11:57:31;102431.81;;;15.23;54.92
75886;BME280;64561;44.018;10.144;2024-02-21T12:00:15;102423.28;;;15.26;55.79
75886;BME280;64561;44.018;10.144;2024-02-21T12:02:44;102417.53;;;15.35;55.56
75886;BME280;64561;44.018;10.144;2024-02-21T12:05:15;102410.09;;;15.45;55.80
75886;BME280;64561;44.018;10.144;2024-02-21T12:07:54;102407.50;;;15.45;55.06
75886;BME280;64561;44.018;10.144;2024-02-21T12:10:22;102404.94;;;15.45;55.01
75886;BME280;64561;44.018;10.144;2024-02-21T12:12:50;102408.38;;;15.46;55.58
75886;BME280;64561;44.018;10.144;2024-02-21T12:15:22;102407.50;;;15.44;55.45
75886;BME280;64561;44.018;10.144;2024-02-21T12:17:51;102409.22;;;15.45;55.10
75886;BME280;64561;44.018;10.144;2024-02-21T12:20:20;102411.66;;;15.40;53.70
75886;BME280;64561;44.018;10.144;2024-02-21T12:22:49;102410.59;;;15.33;54.34
75886;BME280;64561;44.018;10.144;2024-02-21T12:27:46;102409.53;;;15.25;52.92
75886;BME280;64561;44.018;10.144;2024-02-21T12:30:14;102408.34;;;15.16;53.11
75886;BME280;64561;44.018;10.144;2024-02-21T12:32:42;102409.84;;;15.07;53.18
75886;BME280;64561;44.018;10.144;2024-02-21T12:35:09;102412.50;;;14.83;53.65
75886;BME280;64561;44.018;10.144;2024-02-21T12:37:37;102421.69;;;14.75;56.28
75886;BME280;64561;44.018;10.144;2024-02-21T12:40:08;102411.94;;;14.92;56.44
75886;BME280;64561;44.018;10.144;2024-02-21T12:42:35;102411.94;;;14.92;55.28
75886;BME280;64561;44.018;10.144;2024-02-21T12:45:03;102399.63;;;14.83;56.80
75886;BME280;64561;44.018;10.144;2024-02-21T12:47:31;102410.16;;;14.91;53.55
75886;BME280;64561;44.018;10.144;2024-02-21T12:49:59;102399.84;;;14.64;54.21
75886;BME280;64561;44.018;10.144;2024-02-21T12:52:29;102401.16;;;14.51;55.33
75886;BME280;64561;44.018;10.144;2024-02-21T12:54:57;102397.47;;;14.70;54.76
75886;BME280;64561;44.018;10.144;2024-02-21T12:57:25;102395.19;;;14.79;57.24
75886;BME280;64561;44.018;10.144;2024-02-21T12:59:54;102388.81;;;14.95;57.56
75886;BME280;64561;44.018;10.144;2024-02-21T13:02:21;102383.41;;;15.16;55.89
75886;BME280;64561;44.018;10.144;2024-02-21T13:04:52;102369.38;;;15.06;55.46
75886;BME280;64561;44.018;10.144;2024-02-21T13:07:19;102370.50;;;15.15;56.27